Time;durP1;ratioP1;P1;durP2;ratioP2;P2;SDS_P1;SDS_P2;PMS_P1;PMS_P2;Temp;Humidity;BMP_temperature;BMP_pressure;BME280_temperature;BME280_humidity;BME280_pressure;Samples;Min_cycle;Max_cycle;Signal;HPM_P1;HPM_P2
2023/10/20 00:01:26;;;;;;;;;0.00;0.00;;;;;17.60;100.00;97503.91;4905540;28;45724;-81
2023/10/20 00:04:09;;;;;;;;;0.00;0.00;;;;;17.54;100.00;97486.66;4908728;28;45499;-82
2023/10/20 00:06:39;;;;;;;;;0.25;0.00;;;;;17.66;100.00;97508.09;4912646;28;45944;-82
2023/10/20 00:09:16;;;;;;;;;0.00;0.00;;;;;17.63;100.00;97508.78;4899820;28;45826;-83
2023/10/20 00:11:58;;;;;;;;;0.00;0.00;;;;;17.75;100.00;97517.16;4919745;28;45851;-81
2023/10/20 00:14:31;;;;;;;;;0.00;0.00;;;;;17.66;100.00;97505.31;4898697;28;45752;-83
2023/10/20 00:17:01;;;;;;;;;0.00;0.00;;;;;17.49;100.00;97486.06;4923687;28;46381;-82
2023/10/20 00:19:31;;;;;;;;;0.00;0.00;;;;;17.66;100.00;97505.31;4899869;28;45727;-80
2023/10/20 00:21:58;;;;;;;;;0.00;0.00;;;;;17.65;100.00;97498.97;4893348;28;45459;-83
2023/10/20 00:24:53;;;;;;;;;0.00;0.00;;;;;17.64;100.00;97491.00;4912662;28;45859;-84
2023/10/20 00:27:32;;;;;;;;;0.00;0.00;;;;;17.64;100.00;97488.22;4913618;28;45839;-81
2023/10/20 00:30:11;;;;;;;;;0.00;0.00;;;;;17.39;100.00;97449.25;4914948;28;45533;-82
2023/10/20 00:32:45;;;;;;;;;0.00;0.00;;;;;17.42;100.00;97447.78;4923997;28;45823;-82
2023/10/20 00:35:23;;;;;;;;;0.00;0.00;;;;;17.21;100.00;97428.34;4909707;28;45484;-80
2023/10/20 00:37:48;;;;;;;;;0.00;0.00;;;;;17.53;100.00;97470.34;4894809;28;46427;-80
2023/10/20 00:40:22;;;;;;;;;0.00;0.00;;;;;17.52;100.00;97480.63;4903096;28;45622;-81
2023/10/20 00:43:01;;;;;;;;;0.00;0.00;;;;;17.41;100.00;97449.75;4918579;28;45511;-82
2023/10/20 00:49:19;;;;;;;;;0.00;0.00;;;;;17.35;100.00;97458.56;4917462;28;45449;-82
2023/10/20 00:52:11;;;;;;;;;0.00;0.00;;;;;17.40;100.00;97478.59;4918022;28;45351;-81
2023/10/20 00:54:48;;;;;;;;;0.00;0.00;;;;;17.23;100.00;97471.19;4919975;28;45416;-83
2023/10/20 00:57:23;;;;;;;;;0.00;0.00;;;;;17.19;100.00;97455.59;4916608;28;45994;-83
2023/10/20 00:59:50;;;;;;;;;0.00;0.00;;;;;17.03;100.00;97447.81;4937962;28;45584;-83
2023/10/20 01:02:20;;;;;;;;;0.00;0.00;;;;;17.39;100.00;97504.66;4949936;28;45737;-83
2023/10/20 01:04:46;;;;;;;;;0.00;0.00;;;;;17.23;100.00;97479.50;4930807;28;45891;-80
2023/10/20 01:07:14;;;;;;;;;0.25;0.00;;;;;17.23;100.00;97479.50;4916659;28;46166;-81
2023/10/20 01:09:46;;;;;;;;;0.00;0.00;;;;;17.13;100.00;97456.91;4952126;28;45864;-81
2023/10/20 01:12:11;;;;;;;;;0.00;0.00;;;;;17.28;100.00;97467.41;4927770;28;45539;-80
2023/10/20 01:14:44;;;;;;;;;0.75;0.00;;;;;17.07;100.00;97434.94;4901943;28;45522;-83
2023/10/20 01:17:17;;;;;;;;;0.25;0.00;;;;;16.95;100.00;97401.63;4925485;28;45792;-81
2023/10/20 01:19:44;;;;;;;;;0.00;0.00;;;;;17.18;100.00;97437.34;4907210;28;46649;-82
2023/10/20 01:22:42;;;;;;;;;0.00;0.00;;;;;17.12;100.00;97445.00;4915439;28;45847;-80
2023/10/20 01:28:59;;;;;;;;;0.00;0.00;;;;;16.94;100.00;97430.44;4831810;29;45770;-80
2023/10/20 01:32:02;;;;;;;;;0.00;0.00;;;;;17.02;100.00;97445.38;4930903;28;46327;-82
2023/10/20 01:34:31;;;;;;;;;0.00;0.00;;;;;16.97;100.00;97420.66;4937293;28;45465;-82
2023/10/20 01:37:02;;;;;;;;;0.00;0.00;;;;;16.98;100.00;97411.22;4913039;28;46011;-82
2023/10/20 01:39:37;;;;;;;;;0.00;0.00;;;;;16.64;100.00;97377.78;4912730;28;45676;-79
2023/10/20 01:42:10;;;;;;;;;0.00;0.00;;;;;16.90;100.00;97410.09;4924731;28;45799;-83
2023/10/20 01:44:41;;;;;;;;;0.00;0.00;;;;;16.71;100.00;97367.03;4940941;28;45564;-81
2023/10/20 01:47:30;;;;;;;;;0.00;0.00;;;;;16.92;100.00;97408.63;4936877;28;45907;-81
2023/10/20 01:50:13;;;;;;;;;0.00;0.00;;;;;16.90;100.00;97399.03;4923518;28;45505;-81
2023/10/20 01:53:11;;;;;;;;;0.00;0.00;;;;;16.83;100.00;97382.94;4915795;28;45549;-80
2023/10/20 01:59:16;;;;;;;;;0.00;0.00;;;;;16.82;100.00;97363.88;4920162;28;46041;-81
2023/10/20 02:01:42;;;;;;;;;0.00;0.00;;;;;16.74;100.00;97360.03;4921905;28;45977;-82
2023/10/20 02:04:09;;;;;;;;;0.50;0.00;;;;;16.80;100.00;97369.75;4927661;28;45439;-81
2023/10/20 02:06:35;;;;;;;;;0.00;0.00;;;;;16.79;100.00;97361.78;4920967;28;45651;-80
2023/10/20 02:09:01;;;;;;;;;0.00;0.00;;;;;16.84;100.00;97367.97;4913288;28;45967;-79
2023/10/20 02:11:29;;;;;;;;;0.00;0.00;;;;;16.66;100.00;97333.19;4929699;28;45838;-80
2023/10/20 02:13:57;;;;;;;;;0.00;0.00;;;;;16.57;100.00;97308.34;4923613;28;46523;-81
2023/10/20 02:16:22;;;;;;;;;0.00;0.00;;;;;16.58;100.00;97293.38;4905249;28;45843;-81
2023/10/20 02:18:48;;;;;;;;;0.00;0.00;;;;;16.55;100.00;97282.97;4937406;28;45900;-80
2023/10/20 02:21:13;;;;;;;;;0.00;0.00;;;;;16.70;100.00;97301.75;4941896;28;46285;-80
2023/10/20 02:23:39;;;;;;;;;0.00;0.00;;;;;16.59;100.00;97295.00;4939123;28;45397;-81
2023/10/20 02:26:07;;;;;;;;;0.00;0.00;;;;;16.48;100.00;97282.69;4932795;28;45869;-79
2023/10/20 02:28:36;;;;;;;;;0.00;0.00;;;;;16.59;100.00;97301.34;4922609;28;45509;-81
2023/10/20 02:31:12;;;;;;;;;0.00;0.00;;;;;16.50;100.00;97297.00;4920449;28;45995;-82
2023/10/20 02:33:38;;;;;;;;;0.00;0.00;;;;;16.29;100.00;97264.56;4921568;28;45342;-84
2023/10/20 02:36:04;;;;;;;;;0.33;0.33;;;;;16.39;100.00;97283.53;4913571;28;45914;-80
2023/10/20 02:38:30;;;;;;;;;4.00;3.00;;;;;16.40;100.00;97300.94;4916900;28;45702;-80
2023/10/20 02:41:09;;;;;;;;;0.00;0.00;;;;;16.33;100.00;97304.25;4942952;28;45807;-82
2023/10/20 02:47:06;;;;;;;;;0.00;0.00;;;;;16.28;100.00;97303.59;4914199;28;45686;-84
2023/10/20 02:49:40;;;;;;;;;0.00;0.00;;;;;15.97;100.00;97247.47;4919306;28;45906;-82
2023/10/20 02:52:07;;;;;;;;;0.00;0.00;;;;;16.05;100.00;97274.25;4933405;28;45693;-83
2023/10/20 02:55:12;;;;;;;;;0.00;0.00;;;;;15.88;100.00;97243.88;4926955;28;46981;-84
2023/10/20 02:58:11;;;;;;;;;0.00;0.00;;;;;15.93;100.00;97276.06;4922652;28;46302;-81
2023/10/20 03:01:09;;;;;;;;;;;;;;;;;;;;;
2023/10/20 03:03:43;;;;;;;;;0.00;0.00;;;;;15.96;100.00;97305.78;4921613;28;74210;-80
2023/10/20 03:06:26;;;;;;;;;0.00;0.00;;;;;15.67;100.00;97255.66;4921721;28;45623;-81
2023/10/20 03:08:52;;;;;;;;;0.00;0.00;;;;;15.80;100.00;97273.19;4941512;28;46009;-81
2023/10/20 03:11:20;;;;;;;;;0.00;0.00;;;;;15.91;100.00;97283.88;4935518;28;45338;-82
2023/10/20 03:13:58;;;;;;;;;0.00;0.00;;;;;15.85;100.00;97286.00;4942980;28;46156;-81
2023/10/20 03:16:54;;;;;;;;;1.00;0.00;;;;;15.83;100.00;97282.78;4938821;28;46724;-82
2023/10/20 03:20:05;;;;;;;;;0.67;0.00;;;;;15.87;100.00;97295.59;4936489;28;45512;-83
2023/10/20 03:22:29;;;;;;;;;0.00;0.00;;;;;15.74;100.00;97268.13;4932616;28;45943;-81
2023/10/20 03:26:05;;;;;;;;;0.00;0.00;;;;;15.71;100.00;97255.78;4922629;28;45789;-86
2023/10/20 03:28:45;;;;;;;;;0.00;0.00;;;;;15.87;100.00;97267.97;4804577;29;45882;-82
2023/10/20 03:31:12;;;;;;;;;1.00;0.00;;;;;15.95;100.00;97266.31;4858027;29;46015;-81
2023/10/20 03:33:38;;;;;;;;;1.00;0.00;;;;;15.68;100.00;97215.00;4894139;28;45745;-80
2023/10/20 03:36:04;;;;;;;;;0.00;0.00;;;;;15.99;100.00;97249.91;4931149;28;47250;-80
2023/10/20 03:38:31;;;;;;;;;0.00;0.00;;;;;15.89;100.00;97228.94;4932661;28;45489;-81
2023/10/20 03:41:07;;;;;;;;;1.00;0.00;;;;;15.89;100.00;97228.94;4925060;28;45709;-80
2023/10/20 03:43:34;;;;;;;;;0.00;0.00;;;;;15.97;100.00;97244.69;4915233;28;45540;-81
2023/10/20 03:46:06;;;;;;;;;0.00;0.00;;;;;15.95;100.00;97232.34;4920808;28;45857;-80
2023/10/20 03:48:34;;;;;;;;;1.00;0.00;;;;;16.05;100.00;97227.25;4919886;28;45487;-82
2023/10/20 03:51:00;;;;;;;;;0.00;0.00;;;;;16.08;100.00;97239.59;4916464;28;46001;-80
2023/10/20 03:53:35;;;;;;;;;0.00;0.00;;;;;16.08;100.00;97247.06;4936337;28;45725;-80
2023/10/20 03:56:02;;;;;;;;;0.00;0.00;;;;;16.09;100.00;97268.84;4939675;28;45622;-80
2023/10/20 03:58:29;;;;;;;;;0.00;0.00;;;;;16.11;100.00;97268.53;4922392;28;47118;-80
2023/10/20 04:01:01;;;;;;;;;0.00;0.00;;;;;16.08;100.00;97266.41;4904400;28;45899;-80
2023/10/20 04:03:31;;;;;;;;;0.00;0.00;;;;;15.96;100.00;97245.84;4931269;28;45462;-80
2023/10/20 04:05:58;;;;;;;;;0.00;0.00;;;;;16.06;100.00;97263.97;4934809;28;45699;-78
2023/10/20 04:08:24;;;;;;;;;0.00;0.00;;;;;16.10;100.00;97283.50;4948229;28;45635;-81
2023/10/20 04:10:59;;;;;;;;;0.00;0.00;;;;;16.04;100.00;97286.44;4922537;28;45701;-80
2023/10/20 04:13:29;;;;;;;;;0.67;0.00;;;;;16.10;100.00;97291.78;4913655;28;45562;-80
2023/10/20 04:15:55;;;;;;;;;0.00;0.00;;;;;16.10;100.00;97286.25;4933993;28;46831;-81
2023/10/20 04:18:31;;;;;;;;;0.00;0.00;;;;;15.89;100.00;97260.13;4921746;28;46359;-81
2023/10/20 04:21:01;;;;;;;;;0.00;0.00;;;;;16.17;100.00;97303.97;4941969;28;45828;-81
2023/10/20 04:23:29;;;;;;;;;0.00;0.00;;;;;15.98;100.00;97275.91;4931188;28;45648;-79
2023/10/20 04:25:58;;;;;;;;;0.00;0.00;;;;;16.12;100.00;97292.25;4930945;28;45809;-82
2023/10/20 04:28:32;;;;;;;;;0.00;0.00;;;;;16.17;100.00;97305.94;4935874;28;45935;-81
2023/10/20 04:53:12;;;;;;;;;0.00;0.00;;;;;16.00;100.00;97310.38;4929100;28;45716;-83
2023/10/20 04:59:22;;;;;;;;;0.00;0.00;;;;;15.93;100.00;97312.81;4938115;28;45947;-82
2023/10/20 05:01:40;;;;;;;;;0.00;0.00;;;;;15.77;100.00;97308.91;4927369;28;45813;-81
2023/10/20 05:07:05;;;;;;;;;0.00;0.00;;;;;15.89;100.00;97345.00;4921923;28;45925;-82
2023/10/20 05:09:43;;;;;;;;;;;;;;;;;;;;;
2023/10/20 05:12:12;;;;;;;;;0.00;0.00;;;;;15.86;100.00;97348.41;4912296;28;75378;-81
2023/10/20 05:14:40;;;;;;;;;0.00;0.00;;;;;16.05;100.00;97370.19;4918924;28;45440;-82
2023/10/20 05:17:13;;;;;;;;;0.33;0.00;;;;;15.97;100.00;97363.53;4923149;28;45549;-84
2023/10/20 05:19:39;;;;;;;;;0.00;0.00;;;;;16.03;100.00;97362.22;4929970;28;45821;-80
2023/10/20 05:22:05;;;;;;;;;0.00;0.00;;;;;15.95;100.00;97353.94;4929143;28;46337;-81
2023/10/20 05:24:31;;;;;;;;;0.00;0.00;;;;;15.92;100.00;97343.53;4920612;28;45514;-82
2023/10/20 05:26:58;;;;;;;;;0.00;0.00;;;;;15.84;100.00;97329.41;4938175;28;45429;-80
2023/10/20 05:29:23;;;;;;;;;0.00;0.00;;;;;15.98;100.00;97345.78;4931513;28;45513;-80
2023/10/20 05:31:49;;;;;;;;;0.00;0.00;;;;;15.94;100.00;97325.47;4933535;28;46542;-78
2023/10/20 05:34:14;;;;;;;;;0.00;0.00;;;;;16.10;100.00;97347.09;4933244;28;45513;-78
2023/10/20 05:36:42;;;;;;;;;0.00;0.00;;;;;16.17;100.00;97350.16;4932583;28;45435;-81
2023/10/20 05:39:09;;;;;;;;;0.00;0.00;;;;;16.12;100.00;97342.03;4934365;28;45534;-81
2023/10/20 05:41:46;;;;;;;;;0.00;0.00;;;;;16.12;100.00;97322.66;4926117;28;45835;-81
2023/10/20 05:44:14;;;;;;;;;0.00;0.00;;;;;15.96;100.00;97294.75;4930982;28;45816;-84
2023/10/20 05:46:49;;;;;;;;;0.00;0.00;;;;;16.18;100.00;97308.34;4918294;28;45592;-80
2023/10/20 05:49:21;;;;;;;;;0.00;0.00;;;;;16.16;100.00;97301.53;4919949;28;45762;-80
2023/10/20 05:51:51;;;;;;;;;2.00;0.00;;;;;16.33;100.00;97328.28;4906843;28;47288;-82
2023/10/20 05:54:18;;;;;;;;;2.00;0.00;;;;;16.24;100.00;97309.78;4906076;28;45729;-82
2023/10/20 05:56:44;;;;;;;;;0.00;0.00;;;;;16.36;100.00;97325.69;4924732;28;45926;-81
2023/10/20 05:59:21;;;;;;;;;0.00;0.00;;;;;16.37;100.00;97330.06;4911507;28;46367;-83
2023/10/20 06:05:32;;;;;;;;;2.67;1.33;;;;;16.37;100.00;97330.06;4902063;28;45388;-81
2023/10/20 06:07:59;;;;;;;;;3.00;1.00;;;;;16.36;100.00;97335.94;4905543;28;45654;-83
2023/10/20 06:10:36;;;;;;;;;0.00;0.00;;;;;16.14;100.00;97320.41;4897490;28;45572;-83
2023/10/20 06:13:06;;;;;;;;;1.00;1.00;;;;;16.27;100.00;97341.47;4905201;28;48342;-82
2023/10/20 06:15:32;;;;;;;;;1.00;1.00;;;;;16.28;100.00;97348.66;4903575;28;45902;-82
2023/10/20 06:18:00;;;;;;;;;1.00;1.00;;;;;16.21;100.00;97327.03;4907097;28;46008;-80
2023/10/20 06:20:25;;;;;;;;;1.00;1.00;;;;;16.19;100.00;97315.50;4886747;28;46074;-80
2023/10/20 06:22:51;;;;;;;;;0.33;0.33;;;;;16.03;100.00;97309.69;4884073;28;47372;-82
2023/10/20 06:25:20;;;;;;;;;1.00;0.33;;;;;16.28;100.00;97334.03;4894340;28;45886;-84
2023/10/20 06:27:54;;;;;;;;;1.00;1.00;;;;;16.05;100.00;97301.88;4912903;28;45718;-83
2023/10/20 06:30:22;;;;;;;;;2.00;1.00;;;;;16.37;100.00;97346.66;4902820;28;45877;-83
2023/10/20 06:35:52;;;;;;;;;1.00;1.00;;;;;16.12;100.00;97286.72;4879322;29;46003;-82
2023/10/20 06:38:35;;;;;;;;;2.00;2.00;;;;;16.45;100.00;97338.66;4881828;28;45785;-82
2023/10/20 06:41:14;;;;;;;;;1.00;1.00;;;;;16.35;100.00;97326.81;4903209;28;45585;-84
2023/10/20 06:43:40;;;;;;;;;1.00;1.00;;;;;16.41;100.00;97336.56;4908754;28;46455;-87
2023/10/20 06:46:27;;;;;;;;;0.33;0.33;;;;;16.29;100.00;97325.38;4907425;28;45543;-81
2023/10/20 06:48:57;;;;;;;;;2.00;2.00;;;;;16.36;100.00;97330.41;4894031;28;45400;-80
2023/10/20 06:51:25;;;;;;;;;1.00;1.00;;;;;16.35;100.00;97334.31;4900765;28;46115;-81
2023/10/20 06:53:50;;;;;;;;;2.33;2.33;;;;;16.31;100.00;97325.84;4884204;28;47273;-79
2023/10/20 06:56:28;;;;;;;;;1.00;1.00;;;;;16.22;100.00;97330.63;4907700;28;46558;-82
2023/10/20 06:58:54;;;;;;;;;0.67;0.67;;;;;16.18;100.00;97321.34;4891920;28;45697;-78
2023/10/20 07:01:28;;;;;;;;;1.00;1.00;;;;;16.15;100.00;97331.13;4932259;28;45883;-84
2023/10/20 07:04:18;;;;;;;;;2.67;2.67;;;;;16.25;100.00;97346.53;4924676;28;47206;-84
2023/10/20 07:14:46;;;;;;;;;1.00;1.00;;;;;16.30;100.00;97349.16;4777411;29;45801;-84
2023/10/20 07:18:12;;;;;;;;;;;;;;;;;;;;;
2023/10/20 07:48:00;;;;;;;;;4.67;1.00;;;;;16.52;100.00;97350.81;4808522;29;45754;-82
2023/10/20 07:50:46;;;;;;;;;2.33;1.00;;;;;16.72;100.00;97393.56;4866073;28;45597;-82
2023/10/20 07:53:12;;;;;;;;;2.00;2.00;;;;;16.77;100.00;97396.13;4920973;28;47309;-81
2023/10/20 07:55:38;;;;;;;;;1.00;1.00;;;;;16.73;100.00;97378.56;4922216;28;46835;-83
2023/10/20 07:58:04;;;;;;;;;2.00;1.33;;;;;16.90;100.00;97399.88;4910052;28;45661;-81
2023/10/20 08:00:49;;;;;;;;;2.00;2.00;;;;;16.93;100.00;97381.75;4925955;28;45823;-81
2023/10/20 08:03:19;;;;;;;;;0.00;0.00;;;;;17.08;100.00;97383.97;4911583;28;46417;-81
2023/10/20 08:05:50;;;;;;;;;2.00;2.00;;;;;17.21;100.00;97403.44;4919970;28;45567;-82
2023/10/20 08:08:15;;;;;;;;;2.00;2.00;;;;;17.26;100.00;97381.06;4922026;28;45647;-80
2023/10/20 08:10:42;;;;;;;;;0.00;0.00;;;;;17.31;100.00;97358.72;4913195;28;46097;-82
2023/10/20 08:13:09;;;;;;;;;1.00;1.00;;;;;17.44;100.00;97373.44;4912123;28;45764;-79
2023/10/20 08:15:38;;;;;;;;;2.33;1.33;;;;;17.51;100.00;97373.72;4919049;28;45787;-82
2023/10/20 08:18:08;;;;;;;;;2.00;2.00;;;;;17.64;100.00;97382.94;4915808;28;45518;-81
2023/10/20 08:20:39;;;;;;;;;3.00;1.67;;;;;17.65;100.00;97384.56;4925063;28;45023;-81
2023/10/20 08:23:05;;;;;;;;;1.00;1.00;;;;;17.86;100.00;97401.16;4902068;28;47220;-82
2023/10/20 08:25:31;;;;;;;;;2.00;0.00;;;;;18.03;100.00;97414.09;4913822;28;46870;-83
2023/10/20 08:28:02;;;;;;;;;2.00;2.00;;;;;18.02;100.00;97406.91;4922031;28;45717;-82
2023/10/20 08:30:36;;;;;;;;;3.00;2.00;;;;;17.98;100.00;97397.69;4912977;28;45807;-84
2023/10/20 08:33:03;;;;;;;;;1.33;1.33;;;;;17.92;100.00;97368.50;4916998;28;45731;-83
2023/10/20 08:35:30;;;;;;;;;1.25;1.25;;;;;18.12;100.00;97417.59;4919441;28;45556;-81
2023/10/20 08:38:10;;;;;;;;;1.33;1.00;;;;;18.03;100.00;97389.13;4921333;28;45883;-80
2023/10/20 08:40:38;;;;;;;;;2.33;2.00;;;;;18.17;100.00;97394.38;4922229;28;45860;-82
2023/10/20 08:43:05;;;;;;;;;1.00;1.00;;;;;18.42;100.00;97414.69;4923128;28;45616;-81
2023/10/20 08:45:34;;;;;;;;;1.00;1.00;;;;;18.47;100.00;97425.56;4906681;28;46840;-81
2023/10/20 08:48:03;;;;;;;;;3.00;2.25;;;;;18.50;100.00;97424.88;4907521;28;46005;-81
2023/10/20 08:50:31;;;;;;;;;2.00;1.00;;;;;18.46;100.00;97403.72;4910873;28;45916;-81
2023/10/20 08:53:02;;;;;;;;;1.50;1.50;;;;;18.51;100.00;97384.88;4922800;28;45711;-81
2023/10/20 08:55:27;;;;;;;;;1.67;0.67;;;;;18.83;100.00;97412.09;4932489;28;46369;-82
2023/10/20 08:57:53;;;;;;;;;2.00;1.00;;;;;19.01;100.00;97427.41;4920871;28;45746;-82
2023/10/20 09:00:22;;;;;;;;;1.00;1.00;;;;;19.16;100.00;97423.13;4903441;28;45715;-80
2023/10/20 09:02:48;;;;;;;;;5.00;3.00;;;;;19.07;100.00;97386.31;4920956;28;46102;-82
2023/10/20 09:05:42;;;;;;;;;1.00;1.00;;;;;19.39;100.00;97431.00;4906269;28;46735;-83
2023/10/20 09:08:12;;;;;;;;;2.00;2.00;;;;;19.18;100.00;97372.78;4900667;28;45613;-82
2023/10/20 09:10:57;;;;;;;;;22.00;15.00;;;;;19.56;100.00;97435.47;4918005;28;45932;-81
2023/10/20 09:13:34;;;;;;;;;2.00;2.00;;;;;19.27;100.00;97394.91;4923570;28;45468;-83
2023/10/20 09:16:07;;;;;;;;;3.50;2.75;;;;;19.37;100.00;97422.19;4922430;28;45839;-81
2023/10/20 09:18:56;;;;;;;;;1.50;1.00;;;;;19.23;100.00;97417.78;4919028;28;45519;-81
2023/10/20 09:21:28;;;;;;;;;4.00;2.00;;;;;19.16;100.00;97412.03;4913847;28;45962;-83
2023/10/20 09:24:02;;;;;;;;;2.33;2.33;;;;;19.04;100.00;97403.69;4907939;28;46040;-83
2023/10/20 09:26:30;;;;;;;;;3.00;1.00;;;;;19.18;100.00;97447.78;4919816;28;46259;-82
2023/10/20 09:28:56;;;;;;;;;2.00;2.00;;;;;18.99;100.00;97420.59;4908168;28;45806;-80
2023/10/20 09:31:24;;;;;;;;;2.50;2.50;;;;;19.15;100.00;97451.25;4903108;28;45830;-80
2023/10/20 09:33:50;;;;;;;;;2.00;2.00;;;;;19.01;100.00;97412.69;4919870;28;45757;-82
2023/10/20 09:36:17;;;;;;;;;4.50;2.00;;;;;19.11;100.00;97405.88;4907258;28;46908;-81
2023/10/20 09:38:54;;;;;;;;;2.00;2.00;;;;;19.57;100.00;97431.53;4915663;28;46945;-80
2023/10/20 09:41:24;;;;;;;;;1.00;1.00;;;;;19.98;100.00;97443.50;4920669;28;45366;-82
2023/10/20 09:44:02;;;;;;;;;2.25;1.00;;;;;20.18;100.00;97447.28;4921587;28;45997;-82
2023/10/20 09:47:03;;;;;;;;;3.00;3.00;;;;;20.24;100.00;97445.88;4903991;28;46386;-81
2023/10/20 09:49:31;;;;;;;;;3.33;2.00;;;;;20.39;100.00;97443.47;4904963;28;45918;-79
2023/10/20 09:51:56;;;;;;;;;2.75;2.75;;;;;20.34;100.00;97410.34;4909516;28;45589;-81
2023/10/20 09:54:36;;;;;;;;;2.00;2.00;;;;;20.84;100.00;97449.84;4925239;28;45740;-81
2023/10/20 09:57:03;;;;;;;;;1.25;1.25;;;;;21.14;100.00;97451.03;4924560;28;46366;-81
2023/10/20 09:59:36;;;;;;;;;3.00;2.00;;;;;21.29;100.00;97441.06;4901505;28;47109;-82
2023/10/20 10:02:01;;;;;;;;;2.25;2.25;;;;;21.42;100.00;97446.50;4915095;28;46293;-82
2023/10/20 10:04:39;;;;;;;;;5.75;3.50;;;;;21.32;100.00;97431.97;4924830;28;46102;-83
2023/10/20 10:07:09;;;;;;;;;3.50;2.00;;;;;21.50;100.00;97476.22;4918013;28;47098;-80
2023/10/20 10:09:40;;;;;;;;;10.00;7.00;;;;;21.36;100.00;97468.28;4939099;28;47120;-79
2023/10/20 10:12:09;;;;;;;;;3.00;3.00;;;;;21.15;100.00;97462.97;4920036;28;45696;-82
2023/10/20 10:14:37;;;;;;;;;3.75;2.75;;;;;21.29;100.00;97473.69;4913291;28;45661;-80
2023/10/20 10:17:09;;;;;;;;;3.25;3.00;;;;;21.47;100.00;97479.72;4924337;28;47005;-80
2023/10/20 10:19:34;;;;;;;;;4.75;3.25;;;;;21.49;100.00;97482.94;4908688;28;45759;-80
2023/10/20 10:22:02;;;;;;;;;3.50;2.75;;;;;21.79;100.00;97485.25;4924597;28;45540;-81
2023/10/20 10:24:31;;;;;;;;;7.00;6.00;;;;;21.83;100.00;97480.56;4908051;28;45830;-81
2023/10/20 10:27:06;;;;;;;;;3.50;2.50;;;;;21.76;100.00;97478.41;4926954;28;45972;-79
2023/10/20 10:32:44;;;;;;;;;4.00;2.00;;;;;21.19;100.00;97475.03;4901024;28;45550;-79
2023/10/20 10:35:15;;;;;;;;;2.25;2.25;;;;;21.06;100.00;97487.44;4918302;28;45541;-78
2023/10/20 10:37:41;;;;;;;;;4.25;4.25;;;;;20.99;100.00;97490.88;4918970;28;46751;-78
2023/10/20 10:40:18;;;;;;;;;2.67;2.67;;;;;20.94;100.00;97491.94;4916053;28;45410;-79
2023/10/20 10:42:45;;;;;;;;;5.67;3.67;;;;;20.86;100.00;97501.25;4920816;28;45993;-78
2023/10/20 10:45:19;;;;;;;;;6.00;6.00;;;;;20.71;100.00;97493.69;4896025;28;47420;-77
2023/10/20 10:47:46;;;;;;;;;4.00;4.00;;;;;20.60;100.00;97499.75;4909019;28;46259;-79
2023/10/20 10:50:15;;;;;;;;;9.00;4.00;;;;;20.37;100.00;97470.84;4917469;28;45644;-78
2023/10/20 10:52:40;;;;;;;;;5.33;4.33;;;;;20.51;100.00;97501.88;4917320;28;46763;-78
2023/10/20 10:55:06;;;;;;;;;6.00;3.33;;;;;20.32;100.00;97496.97;4920314;28;45796;-80
2023/10/20 10:57:37;;;;;;;;;5.33;5.00;;;;;20.19;100.00;97495.38;4930875;28;45887;-81
2023/10/20 11:00:04;;;;;;;;;3.33;3.33;;;;;20.13;100.00;97500.38;4925991;28;45995;-78
2023/10/20 11:02:31;;;;;;;;;5.00;5.00;;;;;19.97;100.00;97482.81;4911130;28;45833;-84
2023/10/20 11:05:00;;;;;;;;;5.00;3.00;;;;;19.96;100.00;97500.69;4902745;28;45986;-84
2023/10/20 11:07:27;;;;;;;;;4.00;3.00;;;;;20.07;100.00;97476.75;4927444;28;46301;-85
2023/10/20 11:14:00;;;;;;;;;;;;;;;;;;;;;
2023/10/20 11:16:27;;;;;;;;;5.00;4.00;;;;;21.10;100.00;97499.50;4879597;28;73018;-84
2023/10/20 11:18:56;;;;;;;;;3.50;2.00;;;;;21.04;100.00;97473.88;4921913;28;48390;-85
2023/10/20 11:21:24;;;;;;;;;8.67;5.00;;;;;21.00;100.00;97464.59;4917092;28;45310;-85
2023/10/20 11:23:59;;;;;;;;;7.33;4.33;;;;;21.16;100.00;97482.13;4918188;28;44764;-84
2023/10/20 11:26:28;;;;;;;;;5.67;5.00;;;;;21.05;100.00;97488.59;4930003;28;45500;-85
2023/10/20 11:29:03;;;;;;;;;6.33;5.00;;;;;20.95;100.00;97495.53;4919201;28;47064;-83
2023/10/20 11:31:29;;;;;;;;;6.00;4.67;;;;;20.70;100.00;97492.06;4935340;28;45300;-84
2023/10/20 11:33:58;;;;;;;;;6.67;5.33;;;;;20.29;100.00;97475.41;4953723;28;45296;-84
2023/10/20 11:36:34;;;;;;;;;4.33;4.00;;;;;20.10;100.00;97474.09;4911455;28;45649;-83
2023/10/20 11:39:06;;;;;;;;;6.00;4.33;;;;;19.91;100.00;97458.03;4922246;28;47395;-83
2023/10/20 11:41:32;;;;;;;;;6.33;4.67;;;;;19.96;100.00;97476.44;4917477;28;44840;-83
2023/10/20 11:44:00;;;;;;;;;6.33;6.33;;;;;20.04;100.00;97485.81;4940968;28;45564;-83
2023/10/20 11:46:26;;;;;;;;;5.33;5.33;;;;;20.03;100.00;97476.66;4916419;28;47389;-83
2023/10/20 11:48:58;;;;;;;;;4.00;4.00;;;;;20.18;100.00;97482.63;4917372;28;47627;-82
2023/10/20 11:51:24;;;;;;;;;6.33;4.00;;;;;20.40;100.00;97476.50;4943313;28;44755;-83
2023/10/20 11:53:56;;;;;;;;;3.00;2.50;;;;;20.26;100.00;97446.31;4931404;28;45581;-83
2023/10/20 11:56:22;;;;;;;;;4.00;4.00;;;;;20.39;100.00;97457.38;4933712;28;45511;-82
2023/10/20 11:58:48;;;;;;;;;4.00;4.00;;;;;20.59;100.00;97480.63;4915495;28;48210;-80
2023/10/20 12:01:13;;;;;;;;;6.67;5.67;;;;;20.52;100.00;97458.94;4934913;28;45469;-79
2023/10/20 12:03:39;;;;;;;;;4.33;4.00;;;;;20.45;100.00;97472.69;4926305;28;45996;-81
2023/10/20 12:06:06;;;;;;;;;5.67;5.00;;;;;20.39;100.00;97482.44;4915230;28;46099;-81
2023/10/20 12:08:32;;;;;;;;;4.00;4.00;;;;;20.13;100.00;97461.44;4916301;28;48065;-81
2023/10/20 12:10:58;;;;;;;;;7.33;4.00;;;;;19.86;100.00;97441.56;4913093;28;45594;-81
2023/10/20 12:13:24;;;;;;;;;5.00;5.00;;;;;19.92;100.00;97464.41;4924432;28;45692;-80
2023/10/20 12:15:53;;;;;;;;;4.33;4.33;;;;;19.81;100.00;97452.97;4927299;28;46097;-81
2023/10/20 12:18:18;;;;;;;;;6.00;5.00;;;;;19.75;100.00;97446.78;4919596;28;46583;-81
2023/10/20 12:20:46;;;;;;;;;5.25;3.25;;;;;19.95;100.00;97462.88;4911959;28;45467;-80
2023/10/20 12:23:12;;;;;;;;;5.00;3.00;;;;;20.16;100.00;97485.75;4926301;28;45860;-81
2023/10/20 12:25:37;;;;;;;;;5.00;2.67;;;;;20.14;100.00;97474.19;4940275;28;45883;-79
2023/10/20 12:28:05;;;;;;;;;4.67;3.00;;;;;20.04;100.00;97452.41;4921213;28;45922;-81
2023/10/20 12:30:31;;;;;;;;;4.00;4.00;;;;;20.11;100.00;97459.00;4919443;28;45917;-80
2023/10/20 12:32:56;;;;;;;;;2.33;2.33;;;;;19.96;100.00;97459.75;4922055;28;45957;-79
2023/10/20 12:35:21;;;;;;;;;2.33;2.33;;;;;19.82;100.00;97462.94;4919665;28;46906;-80
2023/10/20 12:37:47;;;;;;;;;2.00;2.00;;;;;19.73;100.00;97460.25;4914551;28;47063;-82
2023/10/20 12:40:13;;;;;;;;;4.00;3.00;;;;;19.57;100.00;97457.38;4921709;28;45888;-79
2023/10/20 12:42:40;;;;;;;;;3.33;3.00;;;;;19.57;100.00;97460.16;4916710;28;46331;-80
2023/10/20 12:45:09;;;;;;;;;3.33;2.33;;;;;19.58;100.00;97447.88;4922070;28;45452;-81
2023/10/20 12:47:34;;;;;;;;;3.33;3.33;;;;;19.67;100.00;97436.63;4915135;28;47749;-81
2023/10/20 12:50:00;;;;;;;;;1.00;1.00;;;;;19.87;100.00;97445.97;4921890;28;45941;-78
2023/10/20 12:52:29;;;;;;;;;4.67;2.33;;;;;19.82;100.00;97443.47;4920240;28;45883;-79
2023/10/20 12:54:55;;;;;;;;;3.00;3.00;;;;;19.84;100.00;97452.25;4920789;28;45502;-78
2023/10/20 12:57:23;;;;;;;;;4.67;2.33;;;;;19.72;100.00;97438.34;4927922;28;46875;-80
2023/10/20 12:59:48;;;;;;;;;2.00;2.00;;;;;19.65;100.00;97432.56;4926355;28;45592;-80
2023/10/20 13:02:14;;;;;;;;;4.00;1.00;;;;;19.48;100.00;97434.44;4928465;28;45512;-78
2023/10/20 13:04:39;;;;;;;;;3.00;2.00;;;;;19.31;100.00;97406.91;4923349;28;45493;-80
2023/10/20 13:07:05;;;;;;;;;4.00;2.33;;;;;19.41;100.00;97423.09;4928656;28;46875;-83
2023/10/20 13:09:31;;;;;;;;;2.00;2.00;;;;;19.52;100.00;97435.38;4938757;28;45656;-81
2023/10/20 13:11:57;;;;;;;;;2.33;2.33;;;;;19.49;100.00;97426.91;4912484;28;46004;-82
2023/10/20 13:14:25;;;;;;;;;4.00;2.00;;;;;19.52;100.00;97434.56;4922455;28;47174;-80
2023/10/20 13:16:53;;;;;;;;;2.50;2.25;;;;;19.40;100.00;97415.91;4922342;28;46669;-81
2023/10/20 13:19:19;;;;;;;;;2.25;2.25;;;;;19.41;100.00;97417.56;4925307;28;45844;-80
2023/10/20 13:21:47;;;;;;;;;3.67;1.00;;;;;19.38;100.00;97407.13;4917664;28;46705;-85